sensor_id;sensor_type;location;lat;lon;timestamp;temperature;humidity
41469;DHT22;27206;47.032;15.484;2023-04-01T00:02:18;8.20;1.00
41469;DHT22;27206;47.032;15.484;2023-04-01T00:04:43;8.20;1.00
41469;DHT22;27206;47.032;15.484;2023-04-01T00:07:09;8.30;1.00
41469;DHT22;27206;47.032;15.484;2023-04-01T00:09:36;8.20;1.00
41469;DHT22;27206;47.032;15.484;2023-04-01T00:12:02;8.20;1.00
41469;DHT22;27206;47.032;15.484;2023-04-01T00:14:27;8.10;1.00
41469;DHT22;27206;47.032;15.484;2023-04-01T00:16:54;8.00;1.00
41469;DHT22;27206;47.032;15.484;2023-04-01T00:19:20;8.00;1.00
41469;DHT22;27206;47.032;15.484;2023-04-01T00:21:45;8.10;1.00
41469;DHT22;27206;47.032;15.484;2023-04-01T00:24:12;8.00;1.00
41469;DHT22;27206;47.032;15.484;2023-04-01T00:26:37;8.00;1.00
41469;DHT22;27206;47.032;15.484;2023-04-01T00:29:03;8.00;1.00
41469;DHT22;27206;47.032;15.484;2023-04-01T00:31:29;8.00;1.00
41469;DHT22;27206;47.032;15.484;2023-04-01T00:33:55;8.10;1.00
41469;DHT22;27206;47.032;15.484;2023-04-01T00:36:22;8.00;1.00
41469;DHT22;27206;47.032;15.484;2023-04-01T00:38:48;7.90;1.00
41469;DHT22;27206;47.032;15.484;2023-04-01T00:41:15;7.90;1.00
41469;DHT22;27206;47.032;15.484;2023-04-01T00:43:44;7.80;1.00
41469;DHT22;27206;47.032;15.484;2023-04-01T00:46:10;7.90;1.00
41469;DHT22;27206;47.032;15.484;2023-04-01T00:48:39;7.90;1.00
41469;DHT22;27206;47.032;15.484;2023-04-01T00:51:14;8.00;1.00
41469;DHT22;27206;47.032;15.484;2023-04-01T00:53:44;8.00;1.00
41469;DHT22;27206;47.032;15.484;2023-04-01T00:56:16;7.90;1.00
41469;DHT22;27206;47.032;15.484;2023-04-01T00:58:47;7.90;1.00
41469;DHT22;27206;47.032;15.484;2023-04-01T01:01:13;8.00;1.00
41469;DHT22;27206;47.032;15.484;2023-04-01T01:03:39;8.00;1.00
41469;DHT22;27206;47.032;15.484;2023-04-01T01:11:22;7.90;1.00
41469;DHT22;27206;47.032;15.484;2023-04-01T01:17:06;7.80;1.00
41469;DHT22;27206;47.032;15.484;2023-04-01T01:25:25;7.70;1.00
41469;DHT22;27206;47.032;15.484;2023-04-01T01:30:42;7.70;1.00
41469;DHT22;27206;47.032;15.484;2023-04-01T01:33:48;7.70;1.00
41469;DHT22;27206;47.032;15.484;2023-04-01T01:36:17;7.60;1.00
41469;DHT22;27206;47.032;15.484;2023-04-01T01:38:46;7.60;1.00
41469;DHT22;27206;47.032;15.484;2023-04-01T01:41:15;7.60;1.00
41469;DHT22;27206;47.032;15.484;2023-04-01T01:43:44;7.60;1.00
41469;DHT22;27206;47.032;15.484;2023-04-01T01:46:14;7.70;1.00
41469;DHT22;27206;47.032;15.484;2023-04-01T01:48:42;7.60;1.00
41469;DHT22;27206;47.032;15.484;2023-04-01T01:51:09;7.50;1.00
41469;DHT22;27206;47.032;15.484;2023-04-01T01:53:36;7.60;1.00
41469;DHT22;27206;47.032;15.484;2023-04-01T01:56:02;7.50;1.00
41469;DHT22;27206;47.032;15.484;2023-04-01T01:58:32;7.40;1.00
41469;DHT22;27206;47.032;15.484;2023-04-01T02:01:03;7.30;1.00
41469;DHT22;27206;47.032;15.484;2023-04-01T02:03:34;7.10;1.00
41469;DHT22;27206;47.032;15.484;2023-04-01T02:06:04;7.20;1.00
41469;DHT22;27206;47.032;15.484;2023-04-01T02:08:47;7.20;1.00
41469;DHT22;27206;47.032;15.484;2023-04-01T02:11:21;7.20;1.00
41469;DHT22;27206;47.032;15.484;2023-04-01T02:13:55;7.20;1.00
41469;DHT22;27206;47.032;15.484;2023-04-01T02:16:31;7.10;1.00
41469;DHT22;27206;47.032;15.484;2023-04-01T02:18:58;7.20;1.00
41469;DHT22;27206;47.032;15.484;2023-04-01T02:21:29;7.20;1.00
41469;DHT22;27206;47.032;15.484;2023-04-01T02:23:57;7.20;1.00
41469;DHT22;27206;47.032;15.484;2023-04-01T02:26:25;7.10;1.00
41469;DHT22;27206;47.032;15.484;2023-04-01T02:28:53;7.10;1.00
41469;DHT22;27206;47.032;15.484;2023-04-01T02:31:20;7.20;1.00
41469;DHT22;27206;47.032;15.484;2023-04-01T02:33:47;7.10;1.00
41469;DHT22;27206;47.032;15.484;2023-04-01T02:36:14;7.10;1.00
41469;DHT22;27206;47.032;15.484;2023-04-01T02:38:41;7.10;1.00
41469;DHT22;27206;47.032;15.484;2023-04-01T02:41:07;6.90;1.00
41469;DHT22;27206;47.032;15.484;2023-04-01T02:43:33;6.90;1.00
41469;DHT22;27206;47.032;15.484;2023-04-01T02:45:59;6.90;1.00
41469;DHT22;27206;47.032;15.484;2023-04-01T02:48:25;6.80;1.00
41469;DHT22;27206;47.032;15.484;2023-04-01T02:50:50;6.70;1.00
41469;DHT22;27206;47.032;15.484;2023-04-01T02:53:16;6.60;1.00
41469;DHT22;27206;47.032;15.484;2023-04-01T02:55:43;6.80;1.00
41469;DHT22;27206;47.032;15.484;2023-04-01T02:58:10;6.70;1.00
41469;DHT22;27206;47.032;15.484;2023-04-01T03:00:36;6.80;1.00
41469;DHT22;27206;47.032;15.484;2023-04-01T03:03:01;6.80;1.00
41469;DHT22;27206;47.032;15.484;2023-04-01T03:05:28;6.80;1.00
41469;DHT22;27206;47.032;15.484;2023-04-01T03:07:55;6.80;1.00
41469;DHT22;27206;47.032;15.484;2023-04-01T03:10:20;6.70;1.00
41469;DHT22;27206;47.032;15.484;2023-04-01T03:12:46;6.80;1.00
41469;DHT22;27206;47.032;15.484;2023-04-01T03:15:13;6.80;1.00
41469;DHT22;27206;47.032;15.484;2023-04-01T03:17:40;6.70;1.00
41469;DHT22;27206;47.032;15.484;2023-04-01T03:20:08;6.60;1.00
41469;DHT22;27206;47.032;15.484;2023-04-01T03:22:34;6.70;1.00
41469;DHT22;27206;47.032;15.484;2023-04-01T03:25:01;6.70;1.00
41469;DHT22;27206;47.032;15.484;2023-04-01T03:27:28;6.70;1.00
41469;DHT22;27206;47.032;15.484;2023-04-01T03:29:53;6.70;1.00
41469;DHT22;27206;47.032;15.484;2023-04-01T03:32:19;6.70;1.00
41469;DHT22;27206;47.032;15.484;2023-04-01T03:34:44;6.70;1.00
41469;DHT22;27206;47.032;15.484;2023-04-01T03:37:10;6.70;1.00
41469;DHT22;27206;47.032;15.484;2023-04-01T03:39:36;6.70;1.00
41469;DHT22;27206;47.032;15.484;2023-04-01T03:42:01;6.80;1.00
41469;DHT22;27206;47.032;15.484;2023-04-01T03:44:31;6.80;1.00
41469;DHT22;27206;47.032;15.484;2023-04-01T03:46:57;6.80;1.00
41469;DHT22;27206;47.032;15.484;2023-04-01T03:49:23;6.90;1.00
41469;DHT22;27206;47.032;15.484;2023-04-01T03:51:48;6.90;1.00
41469;DHT22;27206;47.032;15.484;2023-04-01T03:54:14;6.90;1.00
41469;DHT22;27206;47.032;15.484;2023-04-01T03:56:40;6.90;1.00
41469;DHT22;27206;47.032;15.484;2023-04-01T03:59:07;6.90;1.00
41469;DHT22;27206;47.032;15.484;2023-04-01T04:01:33;6.90;1.00
41469;DHT22;27206;47.032;15.484;2023-04-01T04:03:59;6.90;1.00
41469;DHT22;27206;47.032;15.484;2023-04-01T04:06:26;6.90;1.00
41469;DHT22;27206;47.032;15.484;2023-04-01T04:08:51;6.90;1.00
41469;DHT22;27206;47.032;15.484;2023-04-01T04:11:18;6.90;1.00
41469;DHT22;27206;47.032;15.484;2023-04-01T04:13:44;6.90;1.00
41469;DHT22;27206;47.032;15.484;2023-04-01T04:16:10;6.90;1.00
41469;DHT22;27206;47.032;15.484;2023-04-01T04:18:36;6.90;1.00
41469;DHT22;27206;47.032;15.484;2023-04-01T04:21:03;6.90;1.00
41469;DHT22;27206;47.032;15.484;2023-04-01T04:23:29;6.70;1.00
41469;DHT22;27206;47.032;15.484;2023-04-01T04:26:00;6.80;1.00
41469;DHT22;27206;47.032;15.484;2023-04-01T04:28:26;6.70;1.00
41469;DHT22;27206;47.032;15.484;2023-04-01T04:30:53;6.80;1.00
41469;DHT22;27206;47.032;15.484;2023-04-01T04:33:20;6.90;1.00
41469;DHT22;27206;47.032;15.484;2023-04-01T04:35:46;6.90;1.00
41469;DHT22;27206;47.032;15.484;2023-04-01T04:38:11;6.90;1.00
41469;DHT22;27206;47.032;15.484;2023-04-01T04:40:38;6.90;1.00
41469;DHT22;27206;47.032;15.484;2023-04-01T04:43:04;6.80;1.00
41469;DHT22;27206;47.032;15.484;2023-04-01T04:45:30;6.80;1.00
41469;DHT22;27206;47.032;15.484;2023-04-01T04:47:56;6.80;1.00
41469;DHT22;27206;47.032;15.484;2023-04-01T04:50:22;6.80;1.00
41469;DHT22;27206;47.032;15.484;2023-04-01T04:52:48;6.80;1.00
41469;DHT22;27206;47.032;15.484;2023-04-01T04:55:14;6.80;1.00
41469;DHT22;27206;47.032;15.484;2023-04-01T04:57:40;6.80;1.00
41469;DHT22;27206;47.032;15.484;2023-04-01T05:00:07;6.80;1.00
41469;DHT22;27206;47.032;15.484;2023-04-01T05:02:33;6.70;1.00
41469;DHT22;27206;47.032;15.484;2023-04-01T05:04:59;6.70;1.00
41469;DHT22;27206;47.032;15.484;2023-04-01T05:07:24;6.70;1.00
41469;DHT22;27206;47.032;15.484;2023-04-01T05:09:50;6.70;1.00
41469;DHT22;27206;47.032;15.484;2023-04-01T05:12:16;6.70;1.00
41469;DHT22;27206;47.032;15.484;2023-04-01T05:14:41;6.80;1.00
41469;DHT22;27206;47.032;15.484;2023-04-01T05:17:11;6.80;1.00
41469;DHT22;27206;47.032;15.484;2023-04-01T05:19:38;6.70;1.00
41469;DHT22;27206;47.032;15.484;2023-04-01T05:22:04;6.80;1.00
41469;DHT22;27206;47.032;15.484;2023-04-01T05:24:30;6.80;1.00
41469;DHT22;27206;47.032;15.484;2023-04-01T05:26:55;6.80;1.00
41469;DHT22;27206;47.032;15.484;2023-04-01T05:29:23;6.80;1.00
41469;DHT22;27206;47.032;15.484;2023-04-01T05:31:49;6.90;1.00
41469;DHT22;27206;47.032;15.484;2023-04-01T05:34:14;7.00;1.00
41469;DHT22;27206;47.032;15.484;2023-04-01T05:36:40;7.00;1.00
41469;DHT22;27206;47.032;15.484;2023-04-01T05:39:07;7.10;1.00
41469;DHT22;27206;47.032;15.484;2023-04-01T05:41:35;7.00;1.00
41469;DHT22;27206;47.032;15.484;2023-04-01T05:44:01;7.10;1.00
41469;DHT22;27206;47.032;15.484;2023-04-01T05:46:27;7.20;1.00
41469;DHT22;27206;47.032;15.484;2023-04-01T05:48:53;7.20;1.00
41469;DHT22;27206;47.032;15.484;2023-04-01T05:51:19;7.20;1.00
41469;DHT22;27206;47.032;15.484;2023-04-01T05:53:44;7.30;1.00
41469;DHT22;27206;47.032;15.484;2023-04-01T05:56:10;7.20;1.00
41469;DHT22;27206;47.032;15.484;2023-04-01T05:58:36;7.20;1.00
41469;DHT22;27206;47.032;15.484;2023-04-01T06:01:07;7.30;1.00
41469;DHT22;27206;47.032;15.484;2023-04-01T06:03:33;7.40;1.00
41469;DHT22;27206;47.032;15.484;2023-04-01T06:05:59;7.50;1.00
41469;DHT22;27206;47.032;15.484;2023-04-01T06:08:27;7.60;1.00
41469;DHT22;27206;47.032;15.484;2023-04-01T06:22:52;7.80;1.00
41469;DHT22;27206;47.032;15.484;2023-04-01T06:37:06;8.30;1.00
41469;DHT22;27206;47.032;15.484;2023-04-01T06:39:53;8.50;1.00
41469;DHT22;27206;47.032;15.484;2023-04-01T06:48:18;8.60;1.00
41469;DHT22;27206;47.032;15.484;2023-04-01T06:51:07;8.60;1.00
41469;DHT22;27206;47.032;15.484;2023-04-01T06:54:11;8.60;1.00
41469;DHT22;27206;47.032;15.484;2023-04-01T06:56:41;8.60;1.00
41469;DHT22;27206;47.032;15.484;2023-04-01T06:59:31;8.60;1.00
41469;DHT22;27206;47.032;15.484;2023-04-01T07:02:14;8.60;1.00
41469;DHT22;27206;47.032;15.484;2023-04-01T07:04:45;8.70;1.00
41469;DHT22;27206;47.032;15.484;2023-04-01T07:07:35;8.70;1.00
41469;DHT22;27206;47.032;15.484;2023-04-01T07:10:28;8.80;1.00
41469;DHT22;27206;47.032;15.484;2023-04-01T07:12:58;8.80;1.00
41469;DHT22;27206;47.032;15.484;2023-04-01T07:15:35;8.90;1.00
41469;DHT22;27206;47.032;15.484;2023-04-01T07:18:16;9.00;1.00
41469;DHT22;27206;47.032;15.484;2023-04-01T07:20:43;9.00;1.00
41469;DHT22;27206;47.032;15.484;2023-04-01T07:23:36;9.00;1.00
41469;DHT22;27206;47.032;15.484;2023-04-01T07:26:11;9.10;1.00
41469;DHT22;27206;47.032;15.484;2023-04-01T07:28:39;9.10;1.00
41469;DHT22;27206;47.032;15.484;2023-04-01T07:31:15;9.20;1.00
41469;DHT22;27206;47.032;15.484;2023-04-01T07:37:00;9.30;1.00
41469;DHT22;27206;47.032;15.484;2023-04-01T07:44:59;9.50;1.00
41469;DHT22;27206;47.032;15.484;2023-04-01T07:55:47;9.50;1.00
41469;DHT22;27206;47.032;15.484;2023-04-01T08:02:09;9.60;99.90
41469;DHT22;27206;47.032;15.484;2023-04-01T08:04:58;9.70;99.90
41469;DHT22;27206;47.032;15.484;2023-04-01T08:07:51;9.80;99.90
41469;DHT22;27206;47.032;15.484;2023-04-01T08:15:53;10.10;99.90
41469;DHT22;27206;47.032;15.484;2023-04-01T08:18:35;10.20;99.90
41469;DHT22;27206;47.032;15.484;2023-04-01T08:21:11;10.40;99.90
41469;DHT22;27206;47.032;15.484;2023-04-01T08:23:47;10.70;99.90
41469;DHT22;27206;47.032;15.484;2023-04-01T08:31:29;11.30;99.90
41469;DHT22;27206;47.032;15.484;2023-04-01T08:33:56;11.60;99.90
41469;DHT22;27206;47.032;15.484;2023-04-01T08:36:28;12.00;99.90
41469;DHT22;27206;47.032;15.484;2023-04-01T08:39:01;12.40;99.90
41469;DHT22;27206;47.032;15.484;2023-04-01T08:47:27;12.50;99.90
41469;DHT22;27206;47.032;15.484;2023-04-01T09:14:59;13.00;99.90
41469;DHT22;27206;47.032;15.484;2023-04-01T09:39:38;14.10;99.90
41469;DHT22;27206;47.032;15.484;2023-04-01T09:42:15;14.30;99.90
41469;DHT22;27206;47.032;15.484;2023-04-01T09:45:00;14.50;99.90
41469;DHT22;27206;47.032;15.484;2023-04-01T10:29:58;14.60;99.90
41469;DHT22;27206;47.032;15.484;2023-04-01T10:57:44;15.10;99.90
41469;DHT22;27206;47.032;15.484;2023-04-01T11:14:50;15.20;99.90
41469;DHT22;27206;47.032;15.484;2023-04-01T11:17:49;15.20;99.90
41469;DHT22;27206;47.032;15.484;2023-04-01T11:31:54;15.50;99.90
41469;DHT22;27206;47.032;15.484;2023-04-01T11:49:49;15.60;99.90
41469;DHT22;27206;47.032;15.484;2023-04-01T11:52:52;15.50;99.90
41469;DHT22;27206;47.032;15.484;2023-04-01T12:28:36;16.50;99.90
41469;DHT22;27206;47.032;15.484;2023-04-01T12:33:21;16.00;99.90
41469;DHT22;27206;47.032;15.484;2023-04-01T12:36:13;16.30;99.90
41469;DHT22;27206;47.032;15.484;2023-04-01T12:54:47;16.70;99.90
41469;DHT22;27206;47.032;15.484;2023-04-01T13:08:01;16.10;99.90
41469;DHT22;27206;47.032;15.484;2023-04-01T13:10:48;16.10;99.90
41469;DHT22;27206;47.032;15.484;2023-04-01T13:16:26;15.90;99.90
41469;DHT22;27206;47.032;15.484;2023-04-01T13:21:53;16.10;99.90
41469;DHT22;27206;47.032;15.484;2023-04-01T13:24:44;16.10;99.90
41469;DHT22;27206;47.032;15.484;2023-04-01T13:27:17;15.90;99.90
41469;DHT22;27206;47.032;15.484;2023-04-01T13:29:59;15.90;99.90
41469;DHT22;27206;47.032;15.484;2023-04-01T13:32:29;16.00;99.90
41469;DHT22;27206;47.032;15.484;2023-04-01T13:35:20;16.00;99.90
41469;DHT22;27206;47.032;15.484;2023-04-01T13:40:33;16.10;99.90
41469;DHT22;27206;47.032;15.484;2023-04-01T13:43:14;16.10;99.90
41469;DHT22;27206;47.032;15.484;2023-04-01T13:51:34;17.00;99.90
41469;DHT22;27206;47.032;15.484;2023-04-01T13:54:32;17.30;99.90
41469;DHT22;27206;47.032;15.484;2023-04-01T13:57:21;17.50;99.90
41469;DHT22;27206;47.032;15.484;2023-04-01T14:02:46;17.80;99.90
41469;DHT22;27206;47.032;15.484;2023-04-01T14:11:27;18.40;99.90
41469;DHT22;27206;47.032;15.484;2023-04-01T14:14:19;18.50;99.90
41469;DHT22;27206;47.032;15.484;2023-04-01T14:19:50;18.30;99.90
41469;DHT22;27206;47.032;15.484;2023-04-01T14:38:23;18.40;99.90
41469;DHT22;27206;47.032;15.484;2023-04-01T14:41:11;18.20;99.90
41469;DHT22;27206;47.032;15.484;2023-04-01T14:49:36;19.30;99.90
41469;DHT22;27206;47.032;15.484;2023-04-01T14:54:44;18.60;99.90
41469;DHT22;27206;47.032;15.484;2023-04-01T14:57:14;19.00;99.90
41469;DHT22;27206;47.032;15.484;2023-04-01T14:59:46;18.70;99.90
41469;DHT22;27206;47.032;15.484;2023-04-01T15:05:26;19.50;99.90
41469;DHT22;27206;47.032;15.484;2023-04-01T15:08:08;20.00;99.90
41469;DHT22;27206;47.032;15.484;2023-04-01T15:36:14;20.10;99.90
41469;DHT22;27206;47.032;15.484;2023-04-01T15:43:44;21.00;99.90
41469;DHT22;27206;47.032;15.484;2023-04-01T15:46:40;21.10;99.90
41469;DHT22;27206;47.032;15.484;2023-04-01T15:49:36;21.70;99.90
41469;DHT22;27206;47.032;15.484;2023-04-01T15:52:21;21.40;99.90
41469;DHT22;27206;47.032;15.484;2023-04-01T16:00:09;22.10;99.90
41469;DHT22;27206;47.032;15.484;2023-04-01T16:16:16;21.50;99.90
41469;DHT22;27206;47.032;15.484;2023-04-01T16:21:24;21.50;99.90
41469;DHT22;27206;47.032;15.484;2023-04-01T16:24:08;20.70;99.90
41469;DHT22;27206;47.032;15.484;2023-04-01T16:37:54;20.20;99.90
41469;DHT22;27206;47.032;15.484;2023-04-01T16:40:46;20.20;99.90
41469;DHT22;27206;47.032;15.484;2023-04-01T16:51:16;18.80;99.90
41469;DHT22;27206;47.032;15.484;2023-04-01T16:53:49;18.30;99.90
41469;DHT22;27206;47.032;15.484;2023-04-01T16:56:25;17.80;99.90
41469;DHT22;27206;47.032;15.484;2023-04-01T17:01:55;17.20;99.90
41469;DHT22;27206;47.032;15.484;2023-04-01T17:04:34;17.00;99.90
41469;DHT22;27206;47.032;15.484;2023-04-01T17:07:15;16.60;99.90
41469;DHT22;27206;47.032;15.484;2023-04-01T17:18:48;16.10;99.90
41469;DHT22;27206;47.032;15.484;2023-04-01T17:21:00;15.80;99.90
41469;DHT22;27206;47.032;15.484;2023-04-01T17:32:14;15.30;99.90
41469;DHT22;27206;47.032;15.484;2023-04-01T17:35:12;15.20;99.90
41469;DHT22;27206;47.032;15.484;2023-04-01T17:41:06;14.90;99.90
41469;DHT22;27206;47.032;15.484;2023-04-01T17:43:57;14.90;99.90
41469;DHT22;27206;47.032;15.484;2023-04-01T17:47:06;14.60;99.90
41469;DHT22;27206;47.032;15.484;2023-04-01T17:52:37;14.30;99.90
41469;DHT22;27206;47.032;15.484;2023-04-01T18:03:44;14.00;99.90
41469;DHT22;27206;47.032;15.484;2023-04-01T18:18:03;13.70;99.90
41469;DHT22;27206;47.032;15.484;2023-04-01T18:26:10;13.60;99.90
41469;DHT22;27206;47.032;15.484;2023-04-01T18:31:40;13.30;99.90
41469;DHT22;27206;47.032;15.484;2023-04-01T18:34:32;13.40;99.90
41469;DHT22;27206;47.032;15.484;2023-04-01T18:37:18;13.40;99.90
41469;DHT22;27206;47.032;15.484;2023-04-01T18:40:00;13.50;99.90
41469;DHT22;27206;47.032;15.484;2023-04-01T18:45:22;13.50;99.90
41469;DHT22;27206;47.032;15.484;2023-04-01T18:50:58;13.10;99.90
41469;DHT22;27206;47.032;15.484;2023-04-01T18:58:36;13.10;99.90
41469;DHT22;27206;47.032;15.484;2023-04-01T19:01:42;12.90;99.90
41469;DHT22;27206;47.032;15.484;2023-04-01T19:04:21;13.00;99.90
41469;DHT22;27206;47.032;15.484;2023-04-01T19:06:52;13.00;99.90
41469;DHT22;27206;47.032;15.484;2023-04-01T19:09:25;13.10;99.90
41469;DHT22;27206;47.032;15.484;2023-04-01T19:12:23;13.00;99.90
41469;DHT22;27206;47.032;15.484;2023-04-01T19:25:59;12.80;99.90
41469;DHT22;27206;47.032;15.484;2023-04-01T19:29:15;12.90;99.90
41469;DHT22;27206;47.032;15.484;2023-04-01T19:31:57;12.90;99.90
41469;DHT22;27206;47.032;15.484;2023-04-01T19:34:52;12.80;99.90
41469;DHT22;27206;47.032;15.484;2023-04-01T19:46:14;12.30;99.90
41469;DHT22;27206;47.032;15.484;2023-04-01T19:48:43;12.10;99.90
41469;DHT22;27206;47.032;15.484;2023-04-01T19:51:28;12.20;99.90
41469;DHT22;27206;47.032;15.484;2023-04-01T19:56:39;11.90;99.90
41469;DHT22;27206;47.032;15.484;2023-04-01T20:04:29;11.90;99.90
41469;DHT22;27206;47.032;15.484;2023-04-01T20:09:51;11.70;99.90
41469;DHT22;27206;47.032;15.484;2023-04-01T20:14:57;11.50;99.90
41469;DHT22;27206;47.032;15.484;2023-04-01T20:17:44;11.50;99.90
41469;DHT22;27206;47.032;15.484;2023-04-01T20:25:31;11.20;99.90
41469;DHT22;27206;47.032;15.484;2023-04-01T20:28:13;11.20;99.90
41469;DHT22;27206;47.032;15.484;2023-04-01T20:53:11;11.10;99.90
41469;DHT22;27206;47.032;15.484;2023-04-01T21:14:54;11.00;99.90
41469;DHT22;27206;47.032;15.484;2023-04-01T21:23:08;11.00;99.90
41469;DHT22;27206;47.032;15.484;2023-04-01T21:25:54;11.00;99.90
41469;DHT22;27206;47.032;15.484;2023-04-01T21:36:46;10.90;99.90
41469;DHT22;27206;47.032;15.484;2023-04-01T21:39:38;10.90;99.90
41469;DHT22;27206;47.032;15.484;2023-04-01T21:42:13;10.90;99.90
41469;DHT22;27206;47.032;15.484;2023-04-01T21:50:25;10.80;99.90
41469;DHT22;27206;47.032;15.484;2023-04-01T21:53:12;10.70;99.90
41469;DHT22;27206;47.032;15.484;2023-04-01T22:10:04;10.40;99.90
41469;DHT22;27206;47.032;15.484;2023-04-01T22:12:46;10.40;99.90
41469;DHT22;27206;47.032;15.484;2023-04-01T22:18:21;10.20;99.90
41469;DHT22;27206;47.032;15.484;2023-04-01T22:21:26;10.20;99.90
41469;DHT22;27206;47.032;15.484;2023-04-01T22:31:36;10.20;99.90
41469;DHT22;27206;47.032;15.484;2023-04-01T22:56:35;9.60;99.90
41469;DHT22;27206;47.032;15.484;2023-04-01T22:59:19;9.60;99.90
41469;DHT22;27206;47.032;15.484;2023-04-01T23:01:51;9.60;99.90
41469;DHT22;27206;47.032;15.484;2023-04-01T23:04:23;9.40;99.90
41469;DHT22;27206;47.032;15.484;2023-04-01T23:06:54;9.50;99.90
41469;DHT22;27206;47.032;15.484;2023-04-01T23:09:29;9.50;99.90
41469;DHT22;27206;47.032;15.484;2023-04-01T23:12:07;9.50;99.90
41469;DHT22;27206;47.032;15.484;2023-04-01T23:14:38;9.50;99.90
41469;DHT22;27206;47.032;15.484;2023-04-01T23:23:08;9.40;99.90
41469;DHT22;27206;47.032;15.484;2023-04-01T23:28:42;9.30;99.90
41469;DHT22;27206;47.032;15.484;2023-04-01T23:33:58;9.20;99.90
41469;DHT22;27206;47.032;15.484;2023-04-01T23:36:25;9.10;99.90
41469;DHT22;27206;47.032;15.484;2023-04-01T23:38:51;9.10;99.90
41469;DHT22;27206;47.032;15.484;2023-04-01T23:41:29;9.20;99.90
41469;DHT22;27206;47.032;15.484;2023-04-01T23:44:05;9.20;99.90
41469;DHT22;27206;47.032;15.484;2023-04-01T23:46:33;9.00;99.90
41469;DHT22;27206;47.032;15.484;2023-04-01T23:49:01;9.10;99.90
41469;DHT22;27206;47.032;15.484;2023-04-01T23:51:29;9.20;99.90
41469;DHT22;27206;47.032;15.484;2023-04-01T23:54:38;9.00;99.90
41469;DHT22;27206;47.032;15.484;2023-04-01T23:57:15;8.90;99.90
41469;DHT22;27206;47.032;15.484;2023-04-01T23:59:41;9.00;99.90
